Time;durP1;ratioP1;P1;durP2;ratioP2;P2;SDS_P1;SDS_P2;PMS_P1;PMS_P2;Temp;Humidity;BMP_temperature;BMP_pressure;BME280_temperature;BME280_humidity;BME280_pressure;Samples;Min_cycle;Max_cycle;Signal;HPM_P1;HPM_P2
2022/11/11 00:01:36;;;;;;;0.70;0.70;;;;;;;;;;4948915;28;20480;-54
2022/11/11 00:04:02;;;;;;;0.70;0.70;;;;;;;;;;4951104;28;20486;-54
2022/11/11 00:06:28;;;;;;;0.70;0.70;;;;;;;;;;4930566;28;21528;-53
2022/11/11 00:08:54;;;;;;;0.70;0.70;;;;;;;;;;4942285;28;20779;-54
2022/11/11 00:11:20;;;;;;;0.70;0.70;;;;;;;;;;4958450;28;21017;-52
2022/11/11 00:13:45;;;;;;;0.70;0.70;;;;;;;;;;4961897;28;20438;-53
2022/11/11 00:16:15;;;;;;;0.70;0.70;;;;;;;;;;4967801;28;20416;-53
2022/11/11 00:27:04;;;;;;;0.68;0.68;;;;;;;;;;4932131;28;20440;-53
2022/11/11 00:29:30;;;;;;;0.75;0.75;;;;;;;;;;4970986;28;20444;-53
2022/11/11 00:35:51;;;;;;;0.70;0.70;;;;;;;;;;4967626;28;20427;-53
2022/11/11 00:37:26;;;;;;;0.70;0.70;;;;;;;;;;4979724;28;20537;-53
2022/11/11 00:39:52;;;;;;;0.70;0.70;;;;;;;;;;4957458;28;20496;-54
2022/11/11 00:42:18;;;;;;;0.70;0.70;;;;;;;;;;4957073;28;20453;-53
2022/11/11 00:44:44;;;;;;;0.60;0.60;;;;;;;;;;4969547;28;20449;-53
2022/11/11 00:52:40;;;;;;;0.80;0.80;;;;;;;;;;4962773;28;20490;-53
2022/11/11 00:55:06;;;;;;;0.60;0.60;;;;;;;;;;4966468;28;20438;-53
2022/11/11 00:57:32;;;;;;;0.73;0.73;;;;;;;;;;4954307;28;20423;-54
2022/11/11 00:59:58;;;;;;;0.70;0.70;;;;;;;;;;4949585;28;21035;-53
2022/11/11 01:02:24;;;;;;;0.70;0.70;;;;;;;;;;4938325;28;20907;-54
2022/11/11 01:04:50;;;;;;;0.80;0.80;;;;;;;;;;4929315;28;20431;-54
2022/11/11 01:07:16;;;;;;;0.77;0.77;;;;;;;;;;4929150;28;21135;-52
2022/11/11 01:09:42;;;;;;;0.70;0.70;;;;;;;;;;4939102;28;20543;-53
2022/11/11 01:12:07;;;;;;;0.70;0.70;;;;;;;;;;4921279;28;20424;-53
2022/11/11 01:14:33;;;;;;;0.70;0.70;;;;;;;;;;4936858;28;20419;-54
2022/11/11 01:16:59;;;;;;;0.70;0.70;;;;;;;;;;4942396;28;20633;-53
2022/11/11 01:19:25;;;;;;;0.60;0.60;;;;;;;;;;4951793;28;20582;-54
2022/11/11 01:21:51;;;;;;;0.60;0.60;;;;;;;;;;4947437;28;20456;-53
2022/11/11 01:24:17;;;;;;;0.70;0.70;;;;;;;;;;4961766;28;20433;-54
2022/11/11 01:26:43;;;;;;;0.70;0.70;;;;;;;;;;4954479;28;20543;-53
2022/11/11 01:29:09;;;;;;;0.60;0.60;;;;;;;;;;4952715;28;20545;-54
2022/11/11 01:31:35;;;;;;;0.70;0.70;;;;;;;;;;4947690;28;21105;-53
2022/11/11 01:34:01;;;;;;;0.60;0.60;;;;;;;;;;4942291;28;20437;-54
2022/11/11 01:36:27;;;;;;;0.70;0.70;;;;;;;;;;4957475;28;20991;-53
2022/11/11 01:38:57;;;;;;;0.70;0.70;;;;;;;;;;4958909;28;20405;-53
2022/11/11 01:41:32;;;;;;;0.73;0.73;;;;;;;;;;4951839;28;20454;-53
2022/11/11 01:44:10;;;;;;;0.80;0.80;;;;;;;;;;4952367;28;20968;-53
2022/11/11 01:46:43;;;;;;;0.80;0.80;;;;;;;;;;4969522;28;20420;-53
2022/11/11 01:49:28;;;;;;;0.70;0.70;;;;;;;;;;4932150;28;20805;-53
2022/11/11 01:52:10;;;;;;;0.80;0.80;;;;;;;;;;4951029;28;20427;-53
2022/11/11 01:54:51;;;;;;;0.70;0.70;;;;;;;;;;4967854;28;20944;-54
2022/11/11 01:57:19;;;;;;;0.60;0.60;;;;;;;;;;4959815;28;20423;-53
2022/11/11 01:59:45;;;;;;;0.70;0.70;;;;;;;;;;4935467;28;20418;-53
2022/11/11 02:02:15;;;;;;;0.70;0.70;;;;;;;;;;4946683;28;20777;-53
2022/11/11 02:07:25;;;;;;;0.80;0.80;;;;;;;;;;4926248;28;20622;-53
2022/11/11 02:09:51;;;;;;;0.65;0.65;;;;;;;;;;4962687;28;20962;-54
2022/11/11 02:15:02;;;;;;;0.80;0.80;;;;;;;;;;4957206;28;20425;-54
2022/11/11 02:17:29;;;;;;;0.80;0.80;;;;;;;;;;4938928;28;20416;-53
2022/11/11 02:19:56;;;;;;;0.70;0.70;;;;;;;;;;4935853;28;20414;-53
2022/11/11 02:22:33;;;;;;;0.60;0.60;;;;;;;;;;4959462;28;20465;-53
2022/11/11 02:24:59;;;;;;;0.70;0.70;;;;;;;;;;4922584;28;21069;-53
2022/11/11 02:27:25;;;;;;;0.80;0.80;;;;;;;;;;4960062;28;20446;-53
2022/11/11 02:29:52;;;;;;;0.60;0.60;;;;;;;;;;4960278;28;20512;-53
2022/11/11 02:32:18;;;;;;;0.70;0.70;;;;;;;;;;4938898;28;20497;-54
2022/11/11 02:34:44;;;;;;;0.80;0.80;;;;;;;;;;4960768;28;20417;-53
2022/11/11 02:37:10;;;;;;;0.60;0.60;;;;;;;;;;4937048;28;20516;-53
2022/11/11 02:39:37;;;;;;;0.70;0.70;;;;;;;;;;4933311;28;21012;-53
2022/11/11 02:42:09;;;;;;;0.70;0.70;;;;;;;;;;4934186;28;20422;-53
2022/11/11 02:44:35;;;;;;;0.70;0.70;;;;;;;;;;4958464;28;20421;-53
2022/11/11 02:47:00;;;;;;;0.60;0.60;;;;;;;;;;4965762;28;20424;-53
2022/11/11 02:49:26;;;;;;;0.70;0.70;;;;;;;;;;4951742;28;20497;-53
2022/11/11 02:51:52;;;;;;;0.70;0.70;;;;;;;;;;4953249;28;20436;-53
2022/11/11 02:54:18;;;;;;;0.70;0.70;;;;;;;;;;4965203;28;20450;-53
2022/11/11 02:59:29;;;;;;;0.80;0.80;;;;;;;;;;4950010;28;20422;-53
2022/11/11 03:01:55;;;;;;;0.80;0.80;;;;;;;;;;4941997;28;21090;-53
2022/11/11 03:04:21;;;;;;;0.70;0.70;;;;;;;;;;4944416;28;20923;-54
2022/11/11 03:06:47;;;;;;;0.65;0.65;;;;;;;;;;4932222;28;20423;-54
2022/11/11 03:09:13;;;;;;;0.70;0.70;;;;;;;;;;4951208;28;20411;-54
2022/11/11 03:11:39;;;;;;;0.60;0.60;;;;;;;;;;4958734;28;20545;-54
2022/11/11 03:14:06;;;;;;;0.70;0.70;;;;;;;;;;4962990;28;20435;-54
2022/11/11 03:19:17;;;;;;;0.70;0.70;;;;;;;;;;4944433;28;20427;-53
2022/11/11 03:21:43;;;;;;;0.65;0.65;;;;;;;;;;4968416;28;20457;-53
2022/11/11 03:24:09;;;;;;;0.70;0.70;;;;;;;;;;4965839;28;20418;-54
2022/11/11 03:26:35;;;;;;;0.70;0.70;;;;;;;;;;4940684;28;20748;-53
2022/11/11 03:29:01;;;;;;;0.70;0.70;;;;;;;;;;4950078;28;20426;-53
2022/11/11 03:31:27;;;;;;;0.70;0.70;;;;;;;;;;4938897;28;20435;-53
2022/11/11 03:33:53;;;;;;;0.70;0.70;;;;;;;;;;4957291;28;20493;-53
2022/11/11 03:36:19;;;;;;;0.70;0.70;;;;;;;;;;4949093;28;20889;-53
2022/11/11 03:38:45;;;;;;;0.70;0.70;;;;;;;;;;4949998;28;20524;-53
2022/11/11 03:41:11;;;;;;;0.60;0.60;;;;;;;;;;4948254;28;20514;-53
2022/11/11 03:43:37;;;;;;;0.60;0.60;;;;;;;;;;4955770;28;20463;-53
2022/11/11 03:46:03;;;;;;;0.60;0.60;;;;;;;;;;4935291;28;20483;-53
2022/11/11 03:48:30;;;;;;;0.60;0.60;;;;;;;;;;4963088;28;20539;-53
2022/11/11 03:50:56;;;;;;;0.70;0.70;;;;;;;;;;4956456;28;20440;-53
2022/11/11 03:53:22;;;;;;;0.70;0.70;;;;;;;;;;4953220;28;20948;-53
2022/11/11 03:55:48;;;;;;;0.90;0.90;;;;;;;;;;4940735;28;20433;-53
2022/11/11 03:58:14;;;;;;;0.70;0.70;;;;;;;;;;4944494;28;20426;-53
2022/11/11 04:00:40;;;;;;;0.77;0.77;;;;;;;;;;4949121;28;20426;-53
2022/11/11 04:11:27;;;;;;;0.70;0.70;;;;;;;;;;4953797;28;20839;-53
2022/11/11 04:16:38;;;;;;;0.70;0.70;;;;;;;;;;4948613;28;20527;-53
2022/11/11 04:21:49;;;;;;;0.70;0.70;;;;;;;;;;4958633;28;20471;-53
2022/11/11 04:27:01;;;;;;;0.70;0.70;;;;;;;;;;4949749;28;20427;-53
2022/11/11 04:29:27;;;;;;;0.70;0.70;;;;;;;;;;4949228;28;22674;-54
2022/11/11 04:34:38;;;;;;;0.70;0.70;;;;;;;;;;4957760;28;20460;-53
2022/11/11 04:37:04;;;;;;;0.60;0.60;;;;;;;;;;4968470;28;20672;-54
2022/11/11 04:42:14;;;;;;;0.80;0.80;;;;;;;;;;4950606;28;20452;-53
2022/11/11 04:47:25;;;;;;;0.60;0.60;;;;;;;;;;4947838;28;20451;-53
2022/11/11 04:49:51;;;;;;;0.60;0.60;;;;;;;;;;4941191;28;20445;-54
2022/11/11 04:52:26;;;;;;;0.63;0.63;;;;;;;;;;4944398;28;20518;-53
2022/11/11 04:57:44;;;;;;;0.68;0.68;;;;;;;;;;4941297;28;20945;-53
2022/11/11 05:00:10;;;;;;;0.70;0.70;;;;;;;;;;4950200;28;20950;-53
2022/11/11 05:05:21;;;;;;;0.70;0.70;;;;;;;;;;4944599;28;20516;-54
2022/11/11 05:10:32;;;;;;;0.70;0.70;;;;;;;;;;4929688;28;20510;-54
2022/11/11 05:21:22;;;;;;;0.70;0.70;;;;;;;;;;4942985;28;20797;-53
2022/11/11 05:26:35;;;;;;;0.70;0.70;;;;;;;;;;4948293;28;20843;-53
2022/11/11 05:29:01;;;;;;;0.90;0.90;;;;;;;;;;4957833;28;20423;-53
2022/11/11 05:31:28;;;;;;;0.63;0.63;;;;;;;;;;4955347;28;21252;-53
2022/11/11 05:33:54;;;;;;;0.90;0.90;;;;;;;;;;4964502;28;20446;-53
2022/11/11 05:36:20;;;;;;;0.80;0.80;;;;;;;;;;4942421;28;20439;-53
2022/11/11 05:38:46;;;;;;;0.80;0.80;;;;;;;;;;4958425;28;20615;-54
2022/11/11 05:41:12;;;;;;;0.80;0.80;;;;;;;;;;4950626;28;20423;-53
2022/11/11 05:43:38;;;;;;;0.80;0.80;;;;;;;;;;4929539;28;20432;-54
2022/11/11 05:46:04;;;;;;;0.80;0.80;;;;;;;;;;4965331;28;20429;-53
2022/11/11 05:48:30;;;;;;;0.80;0.80;;;;;;;;;;4959397;28;20425;-53
2022/11/11 05:50:57;;;;;;;0.85;0.85;;;;;;;;;;4946137;28;20462;-53
2022/11/11 05:53:24;;;;;;;0.80;0.80;;;;;;;;;;4961227;28;20434;-53
2022/11/11 05:55:50;;;;;;;0.90;0.90;;;;;;;;;;4947633;28;20423;-53
2022/11/11 05:58:19;;;;;;;0.88;0.88;;;;;;;;;;4957385;28;20467;-53
2022/11/11 06:00:45;;;;;;;0.90;0.90;;;;;;;;;;4953635;28;20436;-53
2022/11/11 06:03:11;;;;;;;0.90;0.90;;;;;;;;;;4953878;28;20490;-54
2022/11/11 06:05:37;;;;;;;0.90;0.90;;;;;;;;;;4949609;28;21472;-53
2022/11/11 06:08:03;;;;;;;1.00;1.00;;;;;;;;;;4951704;28;20483;-54
2022/11/11 06:10:29;;;;;;;1.00;1.00;;;;;;;;;;4936270;28;20435;-54
2022/11/11 06:13:01;;;;;;;1.08;1.08;;;;;;;;;;4947094;28;20428;-52
2022/11/11 06:15:27;;;;;;;0.80;0.80;;;;;;;;;;4960547;28;20989;-53
2022/11/11 06:17:54;;;;;;;1.08;1.08;;;;;;;;;;4956794;28;20428;-55
2022/11/11 06:20:19;;;;;;;0.90;0.90;;;;;;;;;;4954821;28;20862;-53
2022/11/11 06:22:55;;;;;;;1.10;1.10;;;;;;;;;;4969610;28;20493;-53
2022/11/11 06:28:05;;;;;;;0.90;0.90;;;;;;;;;;4962769;28;20850;-52
2022/11/11 06:30:31;;;;;;;1.00;1.00;;;;;;;;;;4963188;28;20416;-52
2022/11/11 06:32:57;;;;;;;1.00;1.00;;;;;;;;;;4967032;28;20428;-52
2022/11/11 06:35:23;;;;;;;1.20;1.20;;;;;;;;;;4970757;28;21216;-53
2022/11/11 06:37:49;;;;;;;1.10;1.10;;;;;;;;;;4971631;28;20426;-53
2022/11/11 06:40:15;;;;;;;1.10;1.10;;;;;;;;;;4969480;28;20843;-52
2022/11/11 06:42:41;;;;;;;1.20;1.20;;;;;;;;;;4956573;28;20857;-53
2022/11/11 06:45:07;;;;;;;1.20;1.20;;;;;;;;;;4970707;28;20492;-53
2022/11/11 06:47:33;;;;;;;1.10;1.10;;;;;;;;;;4971265;28;20854;-54
2022/11/11 06:49:59;;;;;;;1.10;1.10;;;;;;;;;;4967598;28;20408;-53
2022/11/11 06:52:25;;;;;;;1.00;1.00;;;;;;;;;;4965593;28;20430;-53
2022/11/11 06:54:51;;;;;;;0.98;0.98;;;;;;;;;;4970325;28;20439;-53
2022/11/11 06:57:17;;;;;;;0.90;0.90;;;;;;;;;;4964949;28;20446;-53
2022/11/11 06:59:43;;;;;;;1.05;1.05;;;;;;;;;;4963759;28;20783;-52
2022/11/11 07:02:12;;;;;;;0.95;0.95;;;;;;;;;;4966874;28;20774;-53
2022/11/11 07:04:38;;;;;;;1.00;1.00;;;;;;;;;;4946696;28;20418;-53
2022/11/11 07:07:04;;;;;;;1.00;1.00;;;;;;;;;;4970580;28;20436;-54
2022/11/11 07:09:30;;;;;;;1.10;1.10;;;;;;;;;;4959358;28;20677;-53
2022/11/11 07:11:56;;;;;;;1.10;1.10;;;;;;;;;;4966896;28;20851;-52
2022/11/11 07:14:22;;;;;;;1.13;1.13;;;;;;;;;;4966677;28;21218;-53
2022/11/11 07:16:48;;;;;;;1.00;1.00;;;;;;;;;;4962258;28;20940;-53
2022/11/11 07:19:14;;;;;;;0.90;0.90;;;;;;;;;;4960184;28;20550;-52
2022/11/11 07:21:40;;;;;;;1.10;1.10;;;;;;;;;;4978813;28;20460;-53
2022/11/11 07:24:06;;;;;;;1.00;1.00;;;;;;;;;;4961105;28;21148;-53
2022/11/11 07:26:32;;;;;;;0.95;0.95;;;;;;;;;;4964886;28;20470;-53
2022/11/11 07:28:57;;;;;;;0.90;0.90;;;;;;;;;;4966873;28;20637;-53
2022/11/11 07:31:23;;;;;;;1.10;1.10;;;;;;;;;;4945943;28;20508;-52
2022/11/11 07:33:49;;;;;;;1.00;1.00;;;;;;;;;;4972989;28;20487;-53
2022/11/11 07:36:15;;;;;;;1.03;1.03;;;;;;;;;;4978210;28;20420;-52
2022/11/11 07:38:41;;;;;;;1.00;1.00;;;;;;;;;;4970127;28;20499;-53
2022/11/11 07:41:07;;;;;;;0.90;0.90;;;;;;;;;;4978745;28;20568;-53
2022/11/11 07:43:33;;;;;;;0.90;0.90;;;;;;;;;;4956649;28;20762;-52
2022/11/11 07:45:59;;;;;;;0.90;0.90;;;;;;;;;;4959894;28;20979;-52
2022/11/11 07:48:25;;;;;;;1.10;1.10;;;;;;;;;;4971000;28;20422;-53
2022/11/11 07:50:53;;;;;;;1.00;1.00;;;;;;;;;;4953933;28;20504;-53
2022/11/11 07:53:19;;;;;;;1.00;1.00;;;;;;;;;;4967823;28;20515;-53
2022/11/11 07:55:45;;;;;;;0.90;0.90;;;;;;;;;;4969515;28;20488;-53
2022/11/11 07:58:11;;;;;;;0.90;0.90;;;;;;;;;;4965405;28;20418;-53
2022/11/11 08:00:37;;;;;;;0.80;0.80;;;;;;;;;;4966968;28;20432;-53
2022/11/11 08:03:03;;;;;;;0.90;0.90;;;;;;;;;;4960627;28;21309;-53
2022/11/11 08:05:29;;;;;;;0.90;0.90;;;;;;;;;;4967700;28;20885;-53
2022/11/11 08:07:55;;;;;;;0.80;0.80;;;;;;;;;;4961177;28;20421;-53
2022/11/11 08:10:21;;;;;;;0.88;0.88;;;;;;;;;;4968073;28;20791;-53
2022/11/11 08:15:37;;;;;;;0.80;0.80;;;;;;;;;;4968230;28;20416;-53
2022/11/11 08:18:03;;;;;;;0.90;0.90;;;;;;;;;;4971829;28;20794;-53
2022/11/11 08:20:29;;;;;;;0.70;0.70;;;;;;;;;;4959989;28;20912;-53
2022/11/11 08:22:57;;;;;;;0.70;0.70;;;;;;;;;;4960271;28;20405;-54
2022/11/11 08:25:23;;;;;;;0.70;0.70;;;;;;;;;;4954771;28;21025;-52
2022/11/11 08:27:49;;;;;;;0.70;0.70;;;;;;;;;;4962794;28;20427;-53
2022/11/11 08:30:15;;;;;;;0.77;0.77;;;;;;;;;;4970238;28;20422;-54
2022/11/11 08:32:41;;;;;;;0.70;0.70;;;;;;;;;;4971231;28;20457;-53
2022/11/11 08:35:07;;;;;;;0.80;0.80;;;;;;;;;;4956903;28;20425;-53
2022/11/11 08:37:33;;;;;;;0.70;0.70;;;;;;;;;;4973150;28;20454;-53
2022/11/11 08:39:59;;;;;;;0.60;0.60;;;;;;;;;;4958894;28;20646;-54
2022/11/11 08:42:25;;;;;;;0.60;0.60;;;;;;;;;;4957061;28;20925;-53
2022/11/11 08:44:51;;;;;;;0.70;0.70;;;;;;;;;;4959942;28;20837;-53
2022/11/11 08:47:19;;;;;;;0.80;0.80;;;;;;;;;;4954855;28;21234;-53
2022/11/11 08:49:48;;;;;;;0.70;0.70;;;;;;;;;;4963838;28;20917;-53
2022/11/11 08:52:14;;;;;;;0.90;0.90;;;;;;;;;;4945288;28;20476;-53
2022/11/11 08:54:40;;;;;;;0.85;0.85;;;;;;;;;;4971308;28;20440;-53
2022/11/11 08:57:06;;;;;;;0.90;0.90;;;;;;;;;;4972691;28;20422;-53
2022/11/11 08:59:32;;;;;;;0.98;0.98;;;;;;;;;;4949631;28;20532;-53
2022/11/11 09:01:58;;;;;;;0.90;0.90;;;;;;;;;;4959587;28;20468;-53
2022/11/11 09:04:24;;;;;;;0.80;0.80;;;;;;;;;;4965449;28;20425;-54
2022/11/11 09:06:50;;;;;;;1.10;1.10;;;;;;;;;;4963087;28;20424;-53
2022/11/11 09:09:16;;;;;;;1.10;1.10;;;;;;;;;;4962795;28;20500;-53
2022/11/11 09:11:42;;;;;;;1.10;1.10;;;;;;;;;;4970048;28;20509;-54
2022/11/11 09:14:08;;;;;;;1.70;1.70;;;;;;;;;;4956205;28;20852;-54
2022/11/11 09:16:34;;;;;;;1.60;1.60;;;;;;;;;;4964215;28;20460;-53
2022/11/11 09:19:00;;;;;;;1.60;1.60;;;;;;;;;;4960295;28;20429;-54
2022/11/11 09:21:26;;;;;;;1.65;1.65;;;;;;;;;;4969810;28;20413;-53
2022/11/11 09:23:52;;;;;;;2.10;2.00;;;;;;;;;;4968379;28;20431;-53
2022/11/11 09:26:18;;;;;;;1.90;1.80;;;;;;;;;;4969679;28;20452;-53
2022/11/11 09:28:44;;;;;;;1.60;1.60;;;;;;;;;;4967456;28;20423;-53
2022/11/11 09:31:10;;;;;;;1.60;1.60;;;;;;;;;;4964806;28;20420;-53
2022/11/11 09:33:36;;;;;;;1.70;1.70;;;;;;;;;;4969244;28;21043;-53
2022/11/11 09:36:02;;;;;;;1.50;1.50;;;;;;;;;;4957435;28;21131;-53
2022/11/11 09:38:28;;;;;;;1.30;1.30;;;;;;;;;;4967827;28;21227;-53
2022/11/11 09:41:02;;;;;;;2.25;2.15;;;;;;;;;;4961769;28;20464;-54
2022/11/11 09:43:47;;;;;;;1.00;1.00;;;;;;;;;;4962171;28;20999;-54
2022/11/11 09:46:31;;;;;;;1.00;1.00;;;;;;;;;;4959729;28;20434;-54
2022/11/11 09:49:03;;;;;;;0.70;0.70;;;;;;;;;;4953689;28;20921;-53
2022/11/11 09:51:36;;;;;;;0.60;0.60;;;;;;;;;;4974732;28;20458;-54
2022/11/11 09:54:04;;;;;;;1.30;1.30;;;;;;;;;;4970209;28;20450;-54
2022/11/11 09:56:30;;;;;;;0.60;0.60;;;;;;;;;;4964389;28;20827;-54
2022/11/11 09:58:58;;;;;;;0.60;0.60;;;;;;;;;;4949588;28;20519;-54
2022/11/11 10:01:27;;;;;;;0.70;0.70;;;;;;;;;;4956310;28;20441;-54
2022/11/11 10:03:59;;;;;;;0.90;0.90;;;;;;;;;;4963452;28;20429;-54
2022/11/11 10:06:30;;;;;;;1.60;1.60;;;;;;;;;;4959812;28;21168;-53
2022/11/11 10:09:03;;;;;;;0.60;0.60;;;;;;;;;;4929434;28;20457;-53
2022/11/11 10:11:29;;;;;;;0.83;0.83;;;;;;;;;;4949156;28;20428;-54
2022/11/11 10:13:55;;;;;;;0.60;0.60;;;;;;;;;;4948778;28;20983;-54
2022/11/11 10:16:24;;;;;;;1.45;1.45;;;;;;;;;;4953851;28;20838;-54
2022/11/11 10:18:54;;;;;;;0.90;0.90;;;;;;;;;;4946088;28;20427;-54
2022/11/11 10:21:24;;;;;;;0.80;0.80;;;;;;;;;;4933715;28;20436;-53
2022/11/11 10:23:50;;;;;;;0.90;0.90;;;;;;;;;;4956601;28;20416;-54
2022/11/11 10:26:22;;;;;;;0.60;0.60;;;;;;;;;;4929156;28;20863;-53
2022/11/11 10:28:48;;;;;;;1.00;1.00;;;;;;;;;;4930743;28;20442;-53
2022/11/11 10:31:16;;;;;;;2.15;2.05;;;;;;;;;;4942128;28;20410;-54
2022/11/11 10:33:52;;;;;;;1.95;1.85;;;;;;;;;;4929916;28;20984;-54
2022/11/11 10:36:19;;;;;;;1.80;1.70;;;;;;;;;;4943019;28;20971;-53
2022/11/11 10:38:51;;;;;;;2.00;1.90;;;;;;;;;;4961176;28;20513;-54
2022/11/11 10:41:16;;;;;;;1.97;1.87;;;;;;;;;;4945923;28;20427;-54
2022/11/11 10:43:45;;;;;;;1.80;1.70;;;;;;;;;;4946594;28;20498;-53
2022/11/11 10:46:14;;;;;;;1.90;1.80;;;;;;;;;;4943048;28;20424;-54
2022/11/11 10:49:00;;;;;;;1.90;1.80;;;;;;;;;;4952873;28;20428;-54
2022/11/11 10:51:27;;;;;;;1.10;1.10;;;;;;;;;;4943052;28;20435;-54
2022/11/11 10:53:56;;;;;;;1.00;1.00;;;;;;;;;;4936840;28;20640;-54
2022/11/11 10:56:22;;;;;;;1.85;1.75;;;;;;;;;;4933868;28;20424;-54
2022/11/11 10:58:56;;;;;;;1.88;1.77;;;;;;;;;;4943616;28;20418;-53
2022/11/11 11:01:25;;;;;;;1.67;1.67;;;;;;;;;;4951506;28;20512;-54
2022/11/11 11:03:58;;;;;;;1.70;1.70;;;;;;;;;;4937508;28;20840;-54
2022/11/11 11:06:28;;;;;;;2.00;1.90;;;;;;;;;;4949132;28;20435;-54
2022/11/11 11:08:55;;;;;;;1.90;1.80;;;;;;;;;;4939221;28;20423;-53
2022/11/11 11:11:27;;;;;;;1.97;1.87;;;;;;;;;;4940570;28;20424;-54
2022/11/11 11:14:03;;;;;;;2.10;2.00;;;;;;;;;;4954633;28;20547;-53
2022/11/11 11:16:33;;;;;;;2.33;2.22;;;;;;;;;;4931447;28;20764;-53
2022/11/11 11:19:15;;;;;;;2.40;2.30;;;;;;;;;;4941227;28;21037;-54
2022/11/11 11:21:51;;;;;;;2.22;2.13;;;;;;;;;;4920628;28;20521;-54
2022/11/11 11:24:21;;;;;;;2.00;1.90;;;;;;;;;;4934297;28;21250;-54
2022/11/11 11:26:48;;;;;;;2.10;2.00;;;;;;;;;;4952726;28;20431;-54
2022/11/11 11:29:16;;;;;;;1.60;1.60;;;;;;;;;;4943234;28;20411;-54
2022/11/11 11:31:44;;;;;;;2.28;2.17;;;;;;;;;;4950470;28;20464;-53
2022/11/11 11:34:10;;;;;;;2.10;2.00;;;;;;;;;;4951298;28;20969;-54
2022/11/11 11:36:36;;;;;;;1.80;1.70;;;;;;;;;;4950565;28;20455;-53
2022/11/11 11:39:02;;;;;;;1.90;1.80;;;;;;;;;;4944228;28;20427;-54
2022/11/11 11:41:41;;;;;;;1.77;1.70;;;;;;;;;;4907313;28;20894;-53
2022/11/11 11:44:26;;;;;;;1.40;1.40;;;;;;;;;;4945278;28;20524;-53
2022/11/11 11:46:53;;;;;;;2.30;2.20;;;;;;;;;;4951536;28;20913;-53
2022/11/11 11:49:40;;;;;;;1.80;1.70;;;;;;;;;;4938498;28;20428;-53
2022/11/11 11:52:15;;;;;;;2.20;2.10;;;;;;;;;;4960706;28;20432;-53
2022/11/11 11:54:50;;;;;;;2.50;2.40;;;;;;;;;;4947168;28;20428;-54
2022/11/11 11:57:36;;;;;;;2.60;2.50;;;;;;;;;;4934143;28;21023;-54
2022/11/11 12:00:06;;;;;;;2.40;2.30;;;;;;;;;;4950145;28;20909;-53
2022/11/11 12:02:51;;;;;;;2.33;2.23;;;;;;;;;;4962235;28;20793;-54
2022/11/11 12:05:32;;;;;;;2.28;2.17;;;;;;;;;;4953751;28;20756;-53
2022/11/11 12:08:16;;;;;;;2.15;2.05;;;;;;;;;;4929826;28;20414;-53
2022/11/11 12:10:48;;;;;;;2.27;2.17;;;;;;;;;;4936339;28;20457;-54
2022/11/11 12:13:14;;;;;;;2.35;2.25;;;;;;;;;;4941161;28;20999;-52
2022/11/11 12:15:47;;;;;;;2.25;2.15;;;;;;;;;;4939678;28;20415;-54
2022/11/11 12:18:35;;;;;;;2.30;2.20;;;;;;;;;;4936716;28;20435;-54
2022/11/11 12:21:06;;;;;;;2.35;2.25;;;;;;;;;;4920864;28;21036;-54
2022/11/11 12:23:53;;;;;;;2.20;2.10;;;;;;;;;;4952886;28;20520;-54
2022/11/11 12:26:27;;;;;;;2.30;2.20;;;;;;;;;;4940605;28;20466;-54
2022/11/11 12:29:00;;;;;;;2.30;2.20;;;;;;;;;;4959128;28;20530;-53
2022/11/11 12:31:36;;;;;;;2.20;2.10;;;;;;;;;;4943962;28;20474;-54
2022/11/11 12:34:06;;;;;;;2.30;2.20;;;;;;;;;;4918958;28;20435;-54
2022/11/11 12:36:32;;;;;;;2.22;2.13;;;;;;;;;;4926141;28;20779;-54
2022/11/11 12:38:59;;;;;;;2.20;2.10;;;;;;;;;;4953978;28;20435;-53
2022/11/11 12:41:44;;;;;;;2.30;2.20;;;;;;;;;;4934097;28;20420;-54
2022/11/11 12:44:11;;;;;;;2.30;2.20;;;;;;;;;;4950177;28;20436;-53
2022/11/11 12:46:40;;;;;;;2.10;2.00;;;;;;;;;;4919937;28;20432;-54
2022/11/11 12:49:24;;;;;;;2.22;2.13;;;;;;;;;;4947314;28;20465;-54
2022/11/11 12:52:00;;;;;;;2.00;1.90;;;;;;;;;;4920930;28;20434;-54
2022/11/11 12:54:26;;;;;;;2.08;1.98;;;;;;;;;;4948371;28;20439;-54
2022/11/11 12:56:52;;;;;;;2.10;2.00;;;;;;;;;;4946493;28;20420;-54
2022/11/11 12:59:18;;;;;;;2.20;2.10;;;;;;;;;;4952894;28;20925;-53
2022/11/11 13:02:08;;;;;;;2.35;2.25;;;;;;;;;;4973383;28;20428;-54
2022/11/11 13:04:53;;;;;;;2.40;2.30;;;;;;;;;;4939023;28;20953;-54
2022/11/11 13:07:38;;;;;;;2.42;2.33;;;;;;;;;;4954557;28;20436;-54
2022/11/11 13:10:03;;;;;;;2.40;2.30;;;;;;;;;;4953677;28;20452;-54
2022/11/11 13:12:47;;;;;;;2.20;2.10;;;;;;;;;;4966282;28;20425;-54
2022/11/11 13:15:23;;;;;;;2.30;2.20;;;;;;;;;;4935021;28;20428;-55
2022/11/11 13:17:49;;;;;;;2.30;2.20;;;;;;;;;;4964484;28;20418;-54
2022/11/11 13:20:24;;;;;;;2.30;2.20;;;;;;;;;;4951866;28;20798;-53
2022/11/11 13:22:50;;;;;;;2.13;2.03;;;;;;;;;;4944927;28;20451;-54
2022/11/11 13:25:18;;;;;;;2.30;2.20;;;;;;;;;;4958117;28;20429;-53
2022/11/11 13:27:45;;;;;;;2.20;2.10;;;;;;;;;;4961480;28;20562;-54
2022/11/11 13:30:25;;;;;;;2.47;2.38;;;;;;;;;;4930430;28;20924;-54
2022/11/11 13:32:53;;;;;;;2.20;2.10;;;;;;;;;;4946820;28;20516;-53
2022/11/11 13:35:19;;;;;;;2.20;2.10;;;;;;;;;;4924853;28;20428;-53
2022/11/11 13:37:45;;;;;;;2.42;2.33;;;;;;;;;;4958688;28;21124;-54
2022/11/11 13:40:18;;;;;;;2.60;2.50;;;;;;;;;;4963624;28;20418;-54
2022/11/11 13:42:46;;;;;;;2.67;2.58;;;;;;;;;;4932743;28;20432;-54
2022/11/11 13:45:23;;;;;;;2.60;2.50;;;;;;;;;;4927337;28;20426;-54
2022/11/11 13:47:49;;;;;;;2.30;2.20;;;;;;;;;;4970916;28;20446;-54
2022/11/11 13:50:28;;;;;;;2.20;2.10;;;;;;;;;;4949530;28;20410;-54
2022/11/11 13:52:59;;;;;;;2.30;2.20;;;;;;;;;;4937659;28;20469;-54
2022/11/11 13:55:29;;;;;;;2.30;2.20;;;;;;;;;;4921462;28;21089;-54
2022/11/11 13:57:55;;;;;;;2.30;2.20;;;;;;;;;;4908208;28;20436;-54
2022/11/11 14:00:21;;;;;;;2.20;2.10;;;;;;;;;;4897404;28;20472;-54
2022/11/11 14:02:47;;;;;;;2.30;2.20;;;;;;;;;;4959794;28;20434;-54
2022/11/11 14:05:13;;;;;;;2.40;2.30;;;;;;;;;;4958116;28;20420;-54
2022/11/11 14:07:48;;;;;;;2.20;2.10;;;;;;;;;;4948373;28;20490;-54
2022/11/11 14:10:17;;;;;;;2.38;2.28;;;;;;;;;;4951527;28;20442;-54
2022/11/11 14:12:43;;;;;;;2.30;2.20;;;;;;;;;;4940925;28;20432;-53
2022/11/11 14:15:29;;;;;;;2.40;2.30;;;;;;;;;;4933618;28;20532;-54
2022/11/11 14:17:55;;;;;;;2.45;2.35;;;;;;;;;;4939174;28;20525;-54
2022/11/11 14:20:37;;;;;;;2.10;2.00;;;;;;;;;;4932772;28;20446;-54
2022/11/11 14:23:18;;;;;;;2.10;2.00;;;;;;;;;;4958089;28;20428;-53
2022/11/11 14:25:44;;;;;;;2.10;2.00;;;;;;;;;;4929978;28;20509;-53
2022/11/11 14:28:28;;;;;;;2.40;2.30;;;;;;;;;;4937129;28;20957;-54
2022/11/11 14:30:58;;;;;;;2.30;2.20;;;;;;;;;;4923845;28;20438;-54
2022/11/11 14:33:34;;;;;;;2.42;2.33;;;;;;;;;;4897849;28;20857;-54
2022/11/11 14:36:05;;;;;;;2.25;2.15;;;;;;;;;;4966027;28;20426;-54
2022/11/11 14:38:50;;;;;;;2.20;2.10;;;;;;;;;;4929811;28;21861;-54
2022/11/11 14:41:35;;;;;;;2.30;2.20;;;;;;;;;;4942754;28;20517;-54
2022/11/11 14:44:19;;;;;;;2.20;2.10;;;;;;;;;;4954463;28;20852;-54
2022/11/11 14:47:04;;;;;;;2.00;1.90;;;;;;;;;;4942885;28;20434;-54
2022/11/11 14:49:39;;;;;;;2.20;2.10;;;;;;;;;;4949807;28;21137;-54
2022/11/11 14:52:21;;;;;;;2.10;2.00;;;;;;;;;;4946942;28;20455;-54
2022/11/11 14:54:51;;;;;;;2.00;1.90;;;;;;;;;;4943070;28;20562;-54
2022/11/11 14:57:21;;;;;;;2.00;1.90;;;;;;;;;;4912595;28;20434;-54
2022/11/11 14:59:47;;;;;;;1.90;1.80;;;;;;;;;;4917840;28;20765;-54
2022/11/11 15:02:18;;;;;;;2.10;2.00;;;;;;;;;;4933456;28;20906;-54
2022/11/11 15:04:44;;;;;;;2.00;1.90;;;;;;;;;;4927267;28;20914;-54
2022/11/11 15:07:43;;;;;;;2.10;2.00;;;;;;;;;;4959465;28;20418;-54
2022/11/11 15:10:27;;;;;;;2.10;2.00;;;;;;;;;;4934158;28;21548;-53
2022/11/11 15:13:06;;;;;;;2.00;1.90;;;;;;;;;;4956966;28;20925;-53
2022/11/11 15:15:39;;;;;;;2.00;1.90;;;;;;;;;;4938740;28;20443;-54
2022/11/11 15:18:13;;;;;;;2.00;1.90;;;;;;;;;;4924006;28;20794;-54
2022/11/11 15:20:42;;;;;;;2.17;2.08;;;;;;;;;;4921117;28;20437;-54
2022/11/11 15:23:21;;;;;;;2.25;2.15;;;;;;;;;;4960671;28;20424;-53
2022/11/11 15:26:06;;;;;;;2.25;2.15;;;;;;;;;;4955792;28;20434;-54
2022/11/11 15:28:53;;;;;;;2.10;2.00;;;;;;;;;;4924273;28;20921;-53
2022/11/11 15:31:45;;;;;;;2.35;2.25;;;;;;;;;;4930685;28;21256;-54
2022/11/11 15:34:27;;;;;;;2.50;2.40;;;;;;;;;;4940801;28;20872;-53
2022/11/11 15:37:00;;;;;;;2.33;2.22;;;;;;;;;;4927900;28;20447;-53
2022/11/11 15:39:40;;;;;;;2.47;2.38;;;;;;;;;;4935831;28;20531;-54
2022/11/11 15:42:05;;;;;;;2.27;2.17;;;;;;;;;;4935506;28;20419;-53
2022/11/11 15:44:32;;;;;;;2.40;2.30;;;;;;;;;;4906101;28;20449;-54
2022/11/11 15:46:58;;;;;;;2.40;2.30;;;;;;;;;;4931210;28;21191;-53
2022/11/11 15:49:36;;;;;;;2.40;2.30;;;;;;;;;;4918079;28;20440;-54
2022/11/11 15:52:02;;;;;;;2.38;2.28;;;;;;;;;;4900238;28;20427;-54
2022/11/11 15:54:31;;;;;;;2.85;2.75;;;;;;;;;;4948107;28;20452;-54
2022/11/11 15:56:57;;;;;;;2.00;1.90;;;;;;;;;;4912196;28;20460;-53
2022/11/11 15:59:24;;;;;;;2.55;2.45;;;;;;;;;;4929572;28;20868;-54
2022/11/11 16:01:53;;;;;;;2.70;2.60;;;;;;;;;;4932535;28;20725;-53
2022/11/11 16:04:20;;;;;;;2.60;2.50;;;;;;;;;;4951922;28;20416;-53
2022/11/11 16:06:46;;;;;;;2.67;2.58;;;;;;;;;;4950758;28;20799;-53
2022/11/11 16:09:12;;;;;;;2.30;2.20;;;;;;;;;;4909933;28;20433;-54
2022/11/11 16:11:39;;;;;;;2.10;2.00;;;;;;;;;;4931773;28;20507;-53
2022/11/11 16:14:05;;;;;;;2.33;2.22;;;;;;;;;;4944871;28;21164;-53